sensor_id;sensor_type;location;lat;lon;timestamp;P1;durP1;ratioP1;P2;durP2;ratioP2
32094;SDS011;18608;53.688;10.748;2023-07-13T00:02:07;8.00;;;4.20;;
32094;SDS011;18608;53.688;10.748;2023-07-13T00:04:34;14.77;;;5.20;;
32094;SDS011;18608;53.688;10.748;2023-07-13T00:07:01;14.90;;;4.53;;
32094;SDS011;18608;53.688;10.748;2023-07-13T00:09:27;10.10;;;4.73;;
32094;SDS011;18608;53.688;10.748;2023-07-13T00:11:54;5.70;;;4.63;;
32094;SDS011;18608;53.688;10.748;2023-07-13T00:14:21;13.43;;;4.93;;
32094;SDS011;18608;53.688;10.748;2023-07-13T00:16:48;10.23;;;4.30;;
32094;SDS011;18608;53.688;10.748;2023-07-13T00:19:14;6.90;;;4.60;;
32094;SDS011;18608;53.688;10.748;2023-07-13T00:21:40;8.53;;;4.67;;
32094;SDS011;18608;53.688;10.748;2023-07-13T00:24:07;23.93;;;4.40;;
32094;SDS011;18608;53.688;10.748;2023-07-13T00:26:37;8.17;;;4.80;;
32094;SDS011;18608;53.688;10.748;2023-07-13T00:29:03;7.40;;;4.57;;
32094;SDS011;18608;53.688;10.748;2023-07-13T00:31:33;8.07;;;4.63;;
32094;SDS011;18608;53.688;10.748;2023-07-13T00:33:59;11.47;;;4.63;;
32094;SDS011;18608;53.688;10.748;2023-07-13T00:36:25;10.33;;;3.83;;
32094;SDS011;18608;53.688;10.748;2023-07-13T00:38:51;11.00;;;4.70;;
32094;SDS011;18608;53.688;10.748;2023-07-13T00:41:18;10.73;;;3.70;;
32094;SDS011;18608;53.688;10.748;2023-07-13T00:43:44;9.10;;;3.97;;
32094;SDS011;18608;53.688;10.748;2023-07-13T00:46:16;9.73;;;3.40;;
32094;SDS011;18608;53.688;10.748;2023-07-13T00:48:49;6.93;;;3.90;;
32094;SDS011;18608;53.688;10.748;2023-07-13T00:51:31;7.17;;;3.70;;
32094;SDS011;18608;53.688;10.748;2023-07-13T00:54:03;11.40;;;3.30;;
32094;SDS011;18608;53.688;10.748;2023-07-13T00:56:34;8.67;;;3.30;;
32094;SDS011;18608;53.688;10.748;2023-07-13T00:59:00;9.40;;;3.13;;
32094;SDS011;18608;53.688;10.748;2023-07-13T01:01:30;9.87;;;3.90;;
32094;SDS011;18608;53.688;10.748;2023-07-13T01:03:56;5.20;;;3.70;;
32094;SDS011;18608;53.688;10.748;2023-07-13T01:06:22;6.90;;;3.70;;
32094;SDS011;18608;53.688;10.748;2023-07-13T01:08:48;6.90;;;4.30;;
32094;SDS011;18608;53.688;10.748;2023-07-13T01:11:18;9.40;;;3.87;;
32094;SDS011;18608;53.688;10.748;2023-07-13T01:13:46;5.37;;;3.47;;
32094;SDS011;18608;53.688;10.748;2023-07-13T01:16:14;10.90;;;3.20;;
32094;SDS011;18608;53.688;10.748;2023-07-13T01:18:44;7.17;;;3.50;;
32094;SDS011;18608;53.688;10.748;2023-07-13T01:21:11;4.10;;;3.70;;
32094;SDS011;18608;53.688;10.748;2023-07-13T01:23:37;2.77;;;2.57;;
32094;SDS011;18608;53.688;10.748;2023-07-13T01:26:03;7.60;;;3.13;;
32094;SDS011;18608;53.688;10.748;2023-07-13T01:28:29;6.90;;;2.83;;
32094;SDS011;18608;53.688;10.748;2023-07-13T01:30:56;3.50;;;2.57;;
32094;SDS011;18608;53.688;10.748;2023-07-13T01:33:24;5.30;;;3.17;;
32094;SDS011;18608;53.688;10.748;2023-07-13T01:35:50;8.43;;;3.70;;
32094;SDS011;18608;53.688;10.748;2023-07-13T01:38:17;10.20;;;3.70;;
32094;SDS011;18608;53.688;10.748;2023-07-13T01:40:44;3.43;;;2.73;;
32094;SDS011;18608;53.688;10.748;2023-07-13T01:43:10;4.70;;;3.50;;
32094;SDS011;18608;53.688;10.748;2023-07-13T01:45:36;12.30;;;3.77;;
32094;SDS011;18608;53.688;10.748;2023-07-13T01:48:02;7.33;;;3.53;;
32094;SDS011;18608;53.688;10.748;2023-07-13T01:50:28;6.77;;;4.33;;
32094;SDS011;18608;53.688;10.748;2023-07-13T01:52:54;14.80;;;4.47;;
32094;SDS011;18608;53.688;10.748;2023-07-13T01:55:21;12.63;;;4.63;;
32094;SDS011;18608;53.688;10.748;2023-07-13T01:57:47;9.77;;;4.97;;
32094;SDS011;18608;53.688;10.748;2023-07-13T02:00:13;6.80;;;3.43;;
32094;SDS011;18608;53.688;10.748;2023-07-13T02:02:40;6.63;;;4.73;;
32094;SDS011;18608;53.688;10.748;2023-07-13T02:05:06;9.43;;;4.30;;
32094;SDS011;18608;53.688;10.748;2023-07-13T02:07:32;8.97;;;4.67;;
32094;SDS011;18608;53.688;10.748;2023-07-13T02:09:58;14.73;;;6.20;;
32094;SDS011;18608;53.688;10.748;2023-07-13T02:12:24;8.10;;;3.90;;
32094;SDS011;18608;53.688;10.748;2023-07-13T02:14:50;8.10;;;4.27;;
32094;SDS011;18608;53.688;10.748;2023-07-13T02:17:16;5.03;;;4.63;;
32094;SDS011;18608;53.688;10.748;2023-07-13T02:19:42;15.07;;;3.53;;
32094;SDS011;18608;53.688;10.748;2023-07-13T02:22:08;4.97;;;3.97;;
32094;SDS011;18608;53.688;10.748;2023-07-13T02:24:34;6.87;;;4.47;;
32094;SDS011;18608;53.688;10.748;2023-07-13T02:27:00;5.50;;;3.70;;
32094;SDS011;18608;53.688;10.748;2023-07-13T02:29:26;10.93;;;4.60;;
32094;SDS011;18608;53.688;10.748;2023-07-13T02:31:52;5.90;;;4.30;;
32094;SDS011;18608;53.688;10.748;2023-07-13T02:34:18;7.33;;;4.00;;
32094;SDS011;18608;53.688;10.748;2023-07-13T02:36:45;10.43;;;4.13;;
32094;SDS011;18608;53.688;10.748;2023-07-13T02:39:11;7.10;;;3.90;;
32094;SDS011;18608;53.688;10.748;2023-07-13T02:41:38;4.73;;;3.50;;
32094;SDS011;18608;53.688;10.748;2023-07-13T02:44:04;6.67;;;4.10;;
32094;SDS011;18608;53.688;10.748;2023-07-13T02:46:32;7.50;;;2.93;;
32094;SDS011;18608;53.688;10.748;2023-07-13T02:48:59;5.63;;;2.83;;
32094;SDS011;18608;53.688;10.748;2023-07-13T02:51:26;5.03;;;2.77;;
32094;SDS011;18608;53.688;10.748;2023-07-13T02:53:51;3.27;;;2.43;;
32094;SDS011;18608;53.688;10.748;2023-07-13T02:56:21;13.63;;;3.30;;
32094;SDS011;18608;53.688;10.748;2023-07-13T02:58:49;4.27;;;2.70;;
32094;SDS011;18608;53.688;10.748;2023-07-13T03:01:15;4.93;;;3.80;;
32094;SDS011;18608;53.688;10.748;2023-07-13T03:03:44;3.90;;;3.60;;
32094;SDS011;18608;53.688;10.748;2023-07-13T03:06:11;7.77;;;4.40;;
32094;SDS011;18608;53.688;10.748;2023-07-13T03:08:37;7.50;;;4.40;;
32094;SDS011;18608;53.688;10.748;2023-07-13T03:11:05;18.33;;;4.70;;
32094;SDS011;18608;53.688;10.748;2023-07-13T03:13:33;5.70;;;4.47;;
32094;SDS011;18608;53.688;10.748;2023-07-13T03:15:59;9.40;;;5.00;;
32094;SDS011;18608;53.688;10.748;2023-07-13T03:18:26;10.53;;;4.83;;
32094;SDS011;18608;53.688;10.748;2023-07-13T03:20:53;8.53;;;6.20;;
32094;SDS011;18608;53.688;10.748;2023-07-13T03:23:19;9.67;;;4.60;;
32094;SDS011;18608;53.688;10.748;2023-07-13T03:25:45;10.00;;;5.37;;
32094;SDS011;18608;53.688;10.748;2023-07-13T03:28:11;9.53;;;4.80;;
32094;SDS011;18608;53.688;10.748;2023-07-13T03:30:38;5.83;;;5.33;;
32094;SDS011;18608;53.688;10.748;2023-07-13T03:33:04;10.60;;;5.70;;
32094;SDS011;18608;53.688;10.748;2023-07-13T03:35:30;9.57;;;5.57;;
32094;SDS011;18608;53.688;10.748;2023-07-13T03:37:57;10.23;;;5.30;;
32094;SDS011;18608;53.688;10.748;2023-07-13T03:40:24;9.43;;;5.87;;
32094;SDS011;18608;53.688;10.748;2023-07-13T03:42:51;7.47;;;5.23;;
32094;SDS011;18608;53.688;10.748;2023-07-13T03:45:17;10.33;;;6.73;;
32094;SDS011;18608;53.688;10.748;2023-07-13T03:47:43;8.53;;;5.60;;
32094;SDS011;18608;53.688;10.748;2023-07-13T03:50:10;11.43;;;5.50;;
32094;SDS011;18608;53.688;10.748;2023-07-13T03:52:36;6.90;;;5.90;;
32094;SDS011;18608;53.688;10.748;2023-07-13T03:55:02;12.13;;;6.13;;
32094;SDS011;18608;53.688;10.748;2023-07-13T03:57:28;8.63;;;5.80;;
32094;SDS011;18608;53.688;10.748;2023-07-13T03:59:54;5.47;;;4.97;;
32094;SDS011;18608;53.688;10.748;2023-07-13T04:02:20;11.43;;;4.53;;
32094;SDS011;18608;53.688;10.748;2023-07-13T04:04:46;6.57;;;4.70;;
32094;SDS011;18608;53.688;10.748;2023-07-13T04:07:12;9.30;;;4.90;;
32094;SDS011;18608;53.688;10.748;2023-07-13T04:09:38;8.23;;;5.17;;
32094;SDS011;18608;53.688;10.748;2023-07-13T04:12:04;5.47;;;4.97;;
32094;SDS011;18608;53.688;10.748;2023-07-13T04:14:31;6.00;;;5.37;;
32094;SDS011;18608;53.688;10.748;2023-07-13T04:16:57;8.97;;;4.57;;
32094;SDS011;18608;53.688;10.748;2023-07-13T04:19:23;8.87;;;5.67;;
32094;SDS011;18608;53.688;10.748;2023-07-13T04:21:49;15.93;;;6.20;;
32094;SDS011;18608;53.688;10.748;2023-07-13T04:24:15;6.80;;;4.63;;
32094;SDS011;18608;53.688;10.748;2023-07-13T04:26:41;4.80;;;4.40;;
32094;SDS011;18608;53.688;10.748;2023-07-13T04:29:07;10.03;;;5.47;;
32094;SDS011;18608;53.688;10.748;2023-07-13T04:31:34;6.27;;;4.03;;
32094;SDS011;18608;53.688;10.748;2023-07-13T04:34:00;11.27;;;4.83;;
32094;SDS011;18608;53.688;10.748;2023-07-13T04:36:26;5.53;;;5.00;;
32094;SDS011;18608;53.688;10.748;2023-07-13T04:38:52;6.80;;;4.60;;
32094;SDS011;18608;53.688;10.748;2023-07-13T04:41:19;9.17;;;5.13;;
32094;SDS011;18608;53.688;10.748;2023-07-13T04:43:45;10.30;;;5.40;;
32094;SDS011;18608;53.688;10.748;2023-07-13T04:46:12;5.73;;;4.60;;
32094;SDS011;18608;53.688;10.748;2023-07-13T04:48:41;5.50;;;3.87;;
32094;SDS011;18608;53.688;10.748;2023-07-13T04:51:06;5.00;;;4.50;;
32094;SDS011;18608;53.688;10.748;2023-07-13T04:53:33;9.80;;;4.70;;
32094;SDS011;18608;53.688;10.748;2023-07-13T04:55:59;9.60;;;4.30;;
32094;SDS011;18608;53.688;10.748;2023-07-13T04:58:25;14.17;;;4.30;;
32094;SDS011;18608;53.688;10.748;2023-07-13T05:00:52;4.13;;;3.33;;
32094;SDS011;18608;53.688;10.748;2023-07-13T05:03:18;8.33;;;4.87;;
32094;SDS011;18608;53.688;10.748;2023-07-13T05:05:54;8.70;;;3.80;;
32094;SDS011;18608;53.688;10.748;2023-07-13T05:08:23;14.70;;;3.60;;
32094;SDS011;18608;53.688;10.748;2023-07-13T05:10:50;8.27;;;3.40;;
32094;SDS011;18608;53.688;10.748;2023-07-13T05:13:16;4.77;;;3.13;;
32094;SDS011;18608;53.688;10.748;2023-07-13T05:15:42;4.60;;;3.20;;
32094;SDS011;18608;53.688;10.748;2023-07-13T05:18:08;10.27;;;3.43;;
32094;SDS011;18608;53.688;10.748;2023-07-13T05:20:34;8.00;;;3.70;;
32094;SDS011;18608;53.688;10.748;2023-07-13T05:23:00;4.17;;;3.30;;
32094;SDS011;18608;53.688;10.748;2023-07-13T05:25:26;4.77;;;3.57;;
32094;SDS011;18608;53.688;10.748;2023-07-13T05:27:52;5.63;;;3.10;;
32094;SDS011;18608;53.688;10.748;2023-07-13T05:30:18;8.53;;;3.13;;
32094;SDS011;18608;53.688;10.748;2023-07-13T05:32:44;7.30;;;3.20;;
32094;SDS011;18608;53.688;10.748;2023-07-13T05:35:10;3.30;;;3.10;;
32094;SDS011;18608;53.688;10.748;2023-07-13T05:37:37;7.80;;;3.40;;
32094;SDS011;18608;53.688;10.748;2023-07-13T05:40:03;7.73;;;4.00;;
32094;SDS011;18608;53.688;10.748;2023-07-13T05:42:29;5.80;;;3.47;;
32094;SDS011;18608;53.688;10.748;2023-07-13T05:44:56;7.70;;;3.90;;
32094;SDS011;18608;53.688;10.748;2023-07-13T05:47:22;8.20;;;2.97;;
32094;SDS011;18608;53.688;10.748;2023-07-13T05:49:48;7.30;;;3.33;;
32094;SDS011;18608;53.688;10.748;2023-07-13T05:52:14;5.70;;;3.00;;
32094;SDS011;18608;53.688;10.748;2023-07-13T05:54:40;9.20;;;3.23;;
32094;SDS011;18608;53.688;10.748;2023-07-13T05:57:06;7.47;;;2.70;;
32094;SDS011;18608;53.688;10.748;2023-07-13T05:59:32;3.83;;;2.90;;
32094;SDS011;18608;53.688;10.748;2023-07-13T06:01:58;4.13;;;2.77;;
32094;SDS011;18608;53.688;10.748;2023-07-13T06:04:24;8.07;;;2.73;;
32094;SDS011;18608;53.688;10.748;2023-07-13T06:06:50;6.30;;;2.90;;
32094;SDS011;18608;53.688;10.748;2023-07-13T06:09:16;5.80;;;2.60;;
32094;SDS011;18608;53.688;10.748;2023-07-13T06:11:42;4.00;;;2.87;;
32094;SDS011;18608;53.688;10.748;2023-07-13T06:14:08;5.90;;;3.30;;
32094;SDS011;18608;53.688;10.748;2023-07-13T06:16:34;17.97;;;3.43;;
32094;SDS011;18608;53.688;10.748;2023-07-13T06:19:00;12.40;;;3.00;;
32094;SDS011;18608;53.688;10.748;2023-07-13T06:21:26;9.37;;;3.33;;
32094;SDS011;18608;53.688;10.748;2023-07-13T06:23:52;11.33;;;2.70;;
32094;SDS011;18608;53.688;10.748;2023-07-13T06:26:19;6.03;;;2.70;;
32094;SDS011;18608;53.688;10.748;2023-07-13T06:28:46;13.50;;;3.17;;
32094;SDS011;18608;53.688;10.748;2023-07-13T06:31:12;11.70;;;2.80;;
32094;SDS011;18608;53.688;10.748;2023-07-13T06:33:38;10.80;;;2.80;;
32094;SDS011;18608;53.688;10.748;2023-07-13T06:36:05;14.63;;;3.20;;
32094;SDS011;18608;53.688;10.748;2023-07-13T06:38:32;5.47;;;2.83;;
32094;SDS011;18608;53.688;10.748;2023-07-13T06:40:59;12.73;;;3.20;;
32094;SDS011;18608;53.688;10.748;2023-07-13T06:43:25;8.90;;;3.40;;
32094;SDS011;18608;53.688;10.748;2023-07-13T06:45:51;7.83;;;3.93;;
32094;SDS011;18608;53.688;10.748;2023-07-13T06:48:20;7.17;;;3.20;;
32094;SDS011;18608;53.688;10.748;2023-07-13T06:50:47;8.37;;;3.10;;
32094;SDS011;18608;53.688;10.748;2023-07-13T06:53:14;11.53;;;3.60;;
32094;SDS011;18608;53.688;10.748;2023-07-13T06:55:43;8.27;;;3.80;;
32094;SDS011;18608;53.688;10.748;2023-07-13T06:58:09;9.40;;;3.57;;
32094;SDS011;18608;53.688;10.748;2023-07-13T07:00:35;15.23;;;3.70;;
32094;SDS011;18608;53.688;10.748;2023-07-13T07:03:02;11.83;;;4.07;;
32094;SDS011;18608;53.688;10.748;2023-07-13T07:05:28;11.13;;;4.43;;
32094;SDS011;18608;53.688;10.748;2023-07-13T07:07:54;7.30;;;3.40;;
32094;SDS011;18608;53.688;10.748;2023-07-13T07:10:20;10.63;;;3.50;;
32094;SDS011;18608;53.688;10.748;2023-07-13T07:12:46;9.40;;;3.83;;
32094;SDS011;18608;53.688;10.748;2023-07-13T07:15:12;14.33;;;3.80;;
32094;SDS011;18608;53.688;10.748;2023-07-13T07:17:38;10.50;;;3.73;;
32094;SDS011;18608;53.688;10.748;2023-07-13T07:20:05;12.53;;;3.90;;
32094;SDS011;18608;53.688;10.748;2023-07-13T07:22:31;11.03;;;3.47;;
32094;SDS011;18608;53.688;10.748;2023-07-13T07:24:58;6.20;;;2.97;;
32094;SDS011;18608;53.688;10.748;2023-07-13T07:27:24;5.57;;;3.30;;
32094;SDS011;18608;53.688;10.748;2023-07-13T07:29:50;10.67;;;2.83;;
32094;SDS011;18608;53.688;10.748;2023-07-13T07:32:16;5.63;;;2.30;;
32094;SDS011;18608;53.688;10.748;2023-07-13T07:34:42;6.20;;;2.90;;
32094;SDS011;18608;53.688;10.748;2023-07-13T07:37:12;5.37;;;3.27;;
32094;SDS011;18608;53.688;10.748;2023-07-13T07:39:38;2.70;;;2.37;;
32094;SDS011;18608;53.688;10.748;2023-07-13T07:42:05;11.90;;;2.53;;
32094;SDS011;18608;53.688;10.748;2023-07-13T07:44:31;14.23;;;2.53;;
32094;SDS011;18608;53.688;10.748;2023-07-13T07:46:57;5.40;;;2.30;;
32094;SDS011;18608;53.688;10.748;2023-07-13T07:49:23;12.13;;;3.63;;
32094;SDS011;18608;53.688;10.748;2023-07-13T07:51:49;10.10;;;1.60;;
32094;SDS011;18608;53.688;10.748;2023-07-13T07:54:15;4.63;;;2.40;;
32094;SDS011;18608;53.688;10.748;2023-07-13T07:56:41;2.43;;;2.23;;
32094;SDS011;18608;53.688;10.748;2023-07-13T07:59:08;9.00;;;2.60;;
32094;SDS011;18608;53.688;10.748;2023-07-13T08:01:34;10.90;;;2.60;;
32094;SDS011;18608;53.688;10.748;2023-07-13T08:04:00;5.00;;;1.77;;
32094;SDS011;18608;53.688;10.748;2023-07-13T08:06:26;7.23;;;2.53;;
32094;SDS011;18608;53.688;10.748;2023-07-13T08:08:52;9.83;;;3.40;;
32094;SDS011;18608;53.688;10.748;2023-07-13T08:11:18;10.33;;;2.60;;
32094;SDS011;18608;53.688;10.748;2023-07-13T08:13:44;6.00;;;1.90;;
32094;SDS011;18608;53.688;10.748;2023-07-13T08:16:10;4.83;;;2.43;;
32094;SDS011;18608;53.688;10.748;2023-07-13T08:18:36;15.70;;;2.70;;
32094;SDS011;18608;53.688;10.748;2023-07-13T08:21:06;6.00;;;2.07;;
32094;SDS011;18608;53.688;10.748;2023-07-13T08:23:33;6.90;;;2.47;;
32094;SDS011;18608;53.688;10.748;2023-07-13T08:25:59;5.67;;;2.00;;
32094;SDS011;18608;53.688;10.748;2023-07-13T08:28:29;8.80;;;2.60;;
32094;SDS011;18608;53.688;10.748;2023-07-13T08:30:59;8.87;;;2.27;;
32094;SDS011;18608;53.688;10.748;2023-07-13T08:33:28;5.70;;;2.60;;
32094;SDS011;18608;53.688;10.748;2023-07-13T08:35:54;3.50;;;2.37;;
32094;SDS011;18608;53.688;10.748;2023-07-13T08:38:20;9.03;;;2.43;;
32094;SDS011;18608;53.688;10.748;2023-07-13T08:40:52;7.93;;;2.83;;
32094;SDS011;18608;53.688;10.748;2023-07-13T08:43:30;3.80;;;2.70;;
32094;SDS011;18608;53.688;10.748;2023-07-13T08:46:01;4.40;;;2.40;;
32094;SDS011;18608;53.688;10.748;2023-07-13T08:48:31;7.13;;;2.70;;
32094;SDS011;18608;53.688;10.748;2023-07-13T08:51:02;6.30;;;2.73;;
32094;SDS011;18608;53.688;10.748;2023-07-13T08:53:40;8.30;;;3.00;;
32094;SDS011;18608;53.688;10.748;2023-07-13T08:56:13;12.03;;;2.93;;
32094;SDS011;18608;53.688;10.748;2023-07-13T08:58:49;12.97;;;3.23;;
32094;SDS011;18608;53.688;10.748;2023-07-13T09:01:44;9.17;;;3.87;;
32094;SDS011;18608;53.688;10.748;2023-07-13T09:04:08;4.87;;;3.60;;
32094;SDS011;18608;53.688;10.748;2023-07-13T09:17:03;6.93;;;3.33;;
32094;SDS011;18608;53.688;10.748;2023-07-13T09:19:35;8.10;;;3.40;;
32094;SDS011;18608;53.688;10.748;2023-07-13T09:22:02;8.43;;;3.03;;
32094;SDS011;18608;53.688;10.748;2023-07-13T09:24:49;13.60;;;3.50;;
32094;SDS011;18608;53.688;10.748;2023-07-13T09:27:35;8.30;;;2.83;;
32094;SDS011;18608;53.688;10.748;2023-07-13T09:32:47;10.27;;;3.10;;
32094;SDS011;18608;53.688;10.748;2023-07-13T09:35:18;4.80;;;2.60;;
32094;SDS011;18608;53.688;10.748;2023-07-13T09:37:47;3.57;;;3.00;;
32094;SDS011;18608;53.688;10.748;2023-07-13T09:40:20;8.47;;;2.90;;
32094;SDS011;18608;53.688;10.748;2023-07-13T09:42:51;7.60;;;2.60;;
32094;SDS011;18608;53.688;10.748;2023-07-13T09:45:28;6.93;;;2.73;;
32094;SDS011;18608;53.688;10.748;2023-07-13T09:47:59;5.93;;;3.10;;
32094;SDS011;18608;53.688;10.748;2023-07-13T09:50:29;4.23;;;2.87;;
32094;SDS011;18608;53.688;10.748;2023-07-13T09:52:55;3.63;;;2.50;;
32094;SDS011;18608;53.688;10.748;2023-07-13T09:55:37;8.93;;;2.90;;
32094;SDS011;18608;53.688;10.748;2023-07-13T09:58:06;4.40;;;2.57;;
32094;SDS011;18608;53.688;10.748;2023-07-13T10:01:03;10.33;;;2.10;;
32094;SDS011;18608;53.688;10.748;2023-07-13T10:03:32;10.93;;;2.63;;
32094;SDS011;18608;53.688;10.748;2023-07-13T10:08:44;4.70;;;3.13;;
32094;SDS011;18608;53.688;10.748;2023-07-13T10:13:54;10.13;;;3.27;;
32094;SDS011;18608;53.688;10.748;2023-07-13T10:16:25;8.80;;;3.10;;
32094;SDS011;18608;53.688;10.748;2023-07-13T10:18:58;7.17;;;3.07;;
32094;SDS011;18608;53.688;10.748;2023-07-13T10:21:29;7.90;;;3.00;;
32094;SDS011;18608;53.688;10.748;2023-07-13T10:24:15;7.63;;;3.43;;
32094;SDS011;18608;53.688;10.748;2023-07-13T10:27:01;8.43;;;3.70;;
32094;SDS011;18608;53.688;10.748;2023-07-13T10:29:52;3.87;;;3.53;;
32094;SDS011;18608;53.688;10.748;2023-07-13T10:32:30;4.47;;;3.53;;
32094;SDS011;18608;53.688;10.748;2023-07-13T10:34:56;8.27;;;3.27;;
32094;SDS011;18608;53.688;10.748;2023-07-13T10:37:26;3.83;;;3.17;;
32094;SDS011;18608;53.688;10.748;2023-07-13T10:39:56;14.07;;;3.20;;
32094;SDS011;18608;53.688;10.748;2023-07-13T10:42:42;3.07;;;2.87;;
32094;SDS011;18608;53.688;10.748;2023-07-13T10:45:15;6.60;;;3.07;;
32094;SDS011;18608;53.688;10.748;2023-07-13T10:47:43;9.97;;;2.87;;
32094;SDS011;18608;53.688;10.748;2023-07-13T10:50:20;6.83;;;2.70;;
32094;SDS011;18608;53.688;10.748;2023-07-13T10:52:54;6.80;;;3.00;;
32094;SDS011;18608;53.688;10.748;2023-07-13T10:58:23;2.70;;;2.50;;
32094;SDS011;18608;53.688;10.748;2023-07-13T11:04:01;3.87;;;2.60;;
32094;SDS011;18608;53.688;10.748;2023-07-13T11:08:58;9.53;;;3.30;;
32094;SDS011;18608;53.688;10.748;2023-07-13T11:11:42;14.07;;;3.10;;
32094;SDS011;18608;53.688;10.748;2023-07-13T11:19:53;3.47;;;1.87;;
32094;SDS011;18608;53.688;10.748;2023-07-13T11:22:41;2.00;;;1.90;;
32094;SDS011;18608;53.688;10.748;2023-07-13T11:30:40;4.80;;;2.40;;
32094;SDS011;18608;53.688;10.748;2023-07-13T11:35:41;5.60;;;2.60;;
32094;SDS011;18608;53.688;10.748;2023-07-13T11:38:15;2.97;;;2.40;;
32094;SDS011;18608;53.688;10.748;2023-07-13T11:40:45;3.60;;;2.87;;
32094;SDS011;18608;53.688;10.748;2023-07-13T11:43:13;5.80;;;2.17;;
32094;SDS011;18608;53.688;10.748;2023-07-13T11:45:41;3.23;;;1.90;;
32094;SDS011;18608;53.688;10.748;2023-07-13T11:48:20;9.40;;;2.13;;
32094;SDS011;18608;53.688;10.748;2023-07-13T11:50:59;4.17;;;2.60;;
32094;SDS011;18608;53.688;10.748;2023-07-13T11:53:44;8.03;;;2.43;;
32094;SDS011;18608;53.688;10.748;2023-07-13T11:56:11;4.27;;;2.07;;
32094;SDS011;18608;53.688;10.748;2023-07-13T11:58:37;5.97;;;2.40;;
32094;SDS011;18608;53.688;10.748;2023-07-13T12:01:03;4.17;;;2.73;;
32094;SDS011;18608;53.688;10.748;2023-07-13T12:03:30;4.27;;;2.23;;
32094;SDS011;18608;53.688;10.748;2023-07-13T12:06:01;5.83;;;2.40;;
32094;SDS011;18608;53.688;10.748;2023-07-13T12:08:30;1.70;;;1.50;;
32094;SDS011;18608;53.688;10.748;2023-07-13T12:11:03;4.73;;;1.97;;
32094;SDS011;18608;53.688;10.748;2023-07-13T12:13:40;4.13;;;2.33;;
32094;SDS011;18608;53.688;10.748;2023-07-13T12:16:14;1.90;;;1.80;;
32094;SDS011;18608;53.688;10.748;2023-07-13T12:19:16;6.17;;;2.10;;
32094;SDS011;18608;53.688;10.748;2023-07-13T12:21:44;2.90;;;2.43;;
32094;SDS011;18608;53.688;10.748;2023-07-13T12:24:15;7.07;;;1.80;;
32094;SDS011;18608;53.688;10.748;2023-07-13T12:26:42;3.97;;;2.30;;
32094;SDS011;18608;53.688;10.748;2023-07-13T12:29:11;2.63;;;2.10;;
32094;SDS011;18608;53.688;10.748;2023-07-13T12:31:42;3.87;;;2.17;;
32094;SDS011;18608;53.688;10.748;2023-07-13T12:34:16;5.37;;;1.87;;
32094;SDS011;18608;53.688;10.748;2023-07-13T12:36:54;6.87;;;2.37;;
32094;SDS011;18608;53.688;10.748;2023-07-13T12:39:34;4.23;;;2.50;;
32094;SDS011;18608;53.688;10.748;2023-07-13T12:42:20;3.40;;;2.43;;
32094;SDS011;18608;53.688;10.748;2023-07-13T12:44:48;11.80;;;2.80;;
32094;SDS011;18608;53.688;10.748;2023-07-13T12:47:15;3.40;;;2.57;;
32094;SDS011;18608;53.688;10.748;2023-07-13T12:49:42;8.47;;;2.67;;
32094;SDS011;18608;53.688;10.748;2023-07-13T12:52:13;6.47;;;3.90;;
32094;SDS011;18608;53.688;10.748;2023-07-13T12:54:52;10.23;;;3.53;;
32094;SDS011;18608;53.688;10.748;2023-07-13T12:57:22;8.00;;;3.67;;
32094;SDS011;18608;53.688;10.748;2023-07-13T12:59:51;10.40;;;3.40;;
32094;SDS011;18608;53.688;10.748;2023-07-13T13:02:31;13.80;;;3.10;;
32094;SDS011;18608;53.688;10.748;2023-07-13T13:05:00;7.00;;;3.60;;
32094;SDS011;18608;53.688;10.748;2023-07-13T13:07:29;4.53;;;4.20;;
32094;SDS011;18608;53.688;10.748;2023-07-13T13:09:55;3.97;;;2.77;;
32094;SDS011;18608;53.688;10.748;2023-07-13T13:12:21;6.70;;;2.73;;
32094;SDS011;18608;53.688;10.748;2023-07-13T13:14:51;3.43;;;3.00;;
32094;SDS011;18608;53.688;10.748;2023-07-13T13:17:19;10.50;;;3.50;;
32094;SDS011;18608;53.688;10.748;2023-07-13T13:19:49;5.93;;;3.83;;
32094;SDS011;18608;53.688;10.748;2023-07-13T13:22:15;8.90;;;3.23;;
32094;SDS011;18608;53.688;10.748;2023-07-13T13:24:41;4.33;;;3.10;;
32094;SDS011;18608;53.688;10.748;2023-07-13T13:27:11;6.33;;;2.50;;
32094;SDS011;18608;53.688;10.748;2023-07-13T13:29:43;5.43;;;3.23;;
32094;SDS011;18608;53.688;10.748;2023-07-13T13:32:11;4.10;;;3.80;;
32094;SDS011;18608;53.688;10.748;2023-07-13T13:34:39;4.60;;;2.63;;
32094;SDS011;18608;53.688;10.748;2023-07-13T13:37:11;3.80;;;2.90;;
32094;SDS011;18608;53.688;10.748;2023-07-13T13:39:45;5.30;;;4.37;;
32094;SDS011;18608;53.688;10.748;2023-07-13T13:42:12;3.27;;;2.67;;
32094;SDS011;18608;53.688;10.748;2023-07-13T13:44:38;2.73;;;2.53;;
32094;SDS011;18608;53.688;10.748;2023-07-13T13:47:07;3.97;;;3.03;;
32094;SDS011;18608;53.688;10.748;2023-07-13T13:49:51;7.63;;;3.20;;
32094;SDS011;18608;53.688;10.748;2023-07-13T13:52:17;5.00;;;2.70;;
32094;SDS011;18608;53.688;10.748;2023-07-13T13:54:43;3.10;;;2.50;;
32094;SDS011;18608;53.688;10.748;2023-07-13T13:57:09;8.47;;;2.80;;
32094;SDS011;18608;53.688;10.748;2023-07-13T14:16:34;5.40;;;3.43;;
32094;SDS011;18608;53.688;10.748;2023-07-13T14:19:00;4.70;;;2.70;;
32094;SDS011;18608;53.688;10.748;2023-07-13T14:21:27;5.33;;;2.50;;
32094;SDS011;18608;53.688;10.748;2023-07-13T14:23:54;5.63;;;2.90;;
32094;SDS011;18608;53.688;10.748;2023-07-13T14:26:23;3.13;;;2.60;;
32094;SDS011;18608;53.688;10.748;2023-07-13T14:28:54;3.90;;;2.73;;
32094;SDS011;18608;53.688;10.748;2023-07-13T14:31:22;8.53;;;3.00;;
32094;SDS011;18608;53.688;10.748;2023-07-13T14:33:49;3.83;;;3.30;;
32094;SDS011;18608;53.688;10.748;2023-07-13T14:36:27;4.80;;;2.67;;
32094;SDS011;18608;53.688;10.748;2023-07-13T14:38:58;11.30;;;2.60;;
32094;SDS011;18608;53.688;10.748;2023-07-13T14:41:25;3.23;;;2.83;;
32094;SDS011;18608;53.688;10.748;2023-07-13T14:43:51;2.37;;;2.17;;
32094;SDS011;18608;53.688;10.748;2023-07-13T14:46:28;2.67;;;2.47;;
32094;SDS011;18608;53.688;10.748;2023-07-13T14:51:47;9.03;;;2.30;;
32094;SDS011;18608;53.688;10.748;2023-07-13T14:54:13;2.60;;;2.40;;
32094;SDS011;18608;53.688;10.748;2023-07-13T14:56:39;8.00;;;2.73;;
32094;SDS011;18608;53.688;10.748;2023-07-13T14:59:05;3.13;;;2.60;;
32094;SDS011;18608;53.688;10.748;2023-07-13T15:01:32;3.70;;;3.00;;
32094;SDS011;18608;53.688;10.748;2023-07-13T15:03:58;3.63;;;2.73;;
32094;SDS011;18608;53.688;10.748;2023-07-13T15:06:24;4.30;;;3.33;;
32094;SDS011;18608;53.688;10.748;2023-07-13T15:08:50;4.00;;;3.10;;
32094;SDS011;18608;53.688;10.748;2023-07-13T15:11:16;5.50;;;2.40;;
32094;SDS011;18608;53.688;10.748;2023-07-13T15:13:43;4.43;;;2.80;;
32094;SDS011;18608;53.688;10.748;2023-07-13T15:16:17;5.13;;;3.40;;
32094;SDS011;18608;53.688;10.748;2023-07-13T15:18:47;4.80;;;4.40;;
32094;SDS011;18608;53.688;10.748;2023-07-13T15:21:15;6.23;;;3.30;;
32094;SDS011;18608;53.688;10.748;2023-07-13T15:23:45;9.43;;;5.07;;
32094;SDS011;18608;53.688;10.748;2023-07-13T15:26:12;3.97;;;3.20;;
32094;SDS011;18608;53.688;10.748;2023-07-13T15:28:40;6.33;;;3.30;;
32094;SDS011;18608;53.688;10.748;2023-07-13T15:31:20;5.63;;;2.63;;
32094;SDS011;18608;53.688;10.748;2023-07-13T15:33:48;12.07;;;4.17;;
32094;SDS011;18608;53.688;10.748;2023-07-13T15:36:16;4.40;;;3.70;;
32094;SDS011;18608;53.688;10.748;2023-07-13T15:38:42;3.90;;;3.20;;
32094;SDS011;18608;53.688;10.748;2023-07-13T15:41:20;6.00;;;3.50;;